Time;durP1;ratioP1;P1;durP2;ratioP2;P2;SDS_P1;SDS_P2;PMS_P1;PMS_P2;Temp;Humidity;BMP_temperature;BMP_pressure;BME280_temperature;BME280_humidity;BME280_pressure;Samples;Min_cycle;Max_cycle;Signal;HPM_P1;HPM_P2
2021/10/18 16:00:53;;;;;;;57.40;33.00;;;;;;;9.00;69.82;99806.76;113826;1192;95687;-71
2021/10/18 16:03:21;;;;;;;54.80;32.00;;;;;;;9.00;69.74;99807.11;113738;1192;96901;-70
2021/10/18 16:05:49;;;;;;;51.70;31.80;;;;;;;9.01;69.71;99806.55;113700;1192;111439;-70
2021/10/18 16:08:17;;;;;;;52.20;31.80;;;;;;;9.01;69.92;99804.79;113712;1191;97548;-70
2021/10/18 16:10:44;;;;;;;51.70;30.70;;;;;;;9.02;69.87;99801.49;113881;1192;107482;-71
2021/10/18 16:13:17;;;;;;;54.10;32.50;;;;;;;9.04;69.89;99803.70;113944;1192;97521;-72
2021/10/18 16:15:49;;;;;;;53.20;31.30;;;;;;;9.05;70.04;99807.20;113875;1192;97646;-71
2021/10/18 16:18:19;;;;;;;49.00;30.60;;;;;;;9.05;69.90;99806.83;113854;1192;111177;-70
2021/10/18 16:20:50;;;;;;;50.50;31.20;;;;;;;9.07;69.99;99806.21;113782;1192;94950;-69
2021/10/18 16:23:20;;;;;;;50.50;31.00;;;;;;;9.06;69.92;99804.63;113794;1192;107507;-70
2021/10/18 16:25:51;;;;;;;50.70;31.10;;;;;;;9.06;69.96;99806.41;113892;1192;96224;-70
2021/10/18 16:28:25;;;;;;;;;;;;;;;9.07;70.03;99810.61;113847;1192;97536;-71
2021/10/18 16:30:54;;;;;;;50.70;30.20;;;;;;;9.05;70.03;99811.98;114481;1191;111206;-69
2021/10/18 16:33:22;;;;;;;54.40;32.20;;;;;;;9.05;69.95;99814.25;113729;1193;97625;-70
2021/10/18 16:35:51;;;;;;;57.00;33.20;;;;;;;9.05;70.17;99814.42;113703;1191;107185;-70
2021/10/18 16:38:23;;;;;;;47.70;29.50;;;;;;;9.07;70.17;99813.97;114454;1192;97672;-70
2021/10/18 16:40:51;;;;;;;45.70;27.70;;;;;;;9.08;70.22;99816.06;113752;1193;97587;-71
2021/10/18 16:43:19;;;;;;;46.20;27.20;;;;;;;9.06;70.53;99821.80;113736;1191;110569;-70
2021/10/18 16:45:49;;;;;;;44.90;27.00;;;;;;;9.05;70.29;99819.73;115055;1191;95583;-70
2021/10/18 16:48:20;;;;;;;44.20;26.00;;;;;;;9.05;70.44;99821.84;113733;1192;107481;-68
2021/10/18 16:50:48;;;;;;;42.00;24.60;;;;;;;9.06;70.36;99821.30;113823;1192;97759;-71
2021/10/18 16:53:16;;;;;;;45.20;26.10;;;;;;;9.06;70.51;99823.58;113919;1192;98005;-72
2021/10/18 16:55:46;;;;;;;45.70;28.10;;;;;;;9.05;70.99;99820.63;113886;1192;111078;-71
2021/10/18 16:58:16;;;;;;;43.50;26.90;;;;;;;9.05;70.72;99822.98;113690;1193;97614;-70
2021/10/18 17:00:45;;;;;;;47.50;27.90;;;;;;;9.04;70.59;99821.55;114342;1192;107612;-70
2021/10/18 17:03:15;;;;;;;44.30;27.30;;;;;;;9.03;70.67;99823.56;113768;1177;98263;-71
2021/10/18 17:05:45;;;;;;;44.00;26.90;;;;;;;9.03;70.56;99826.74;113874;1190;97534;-70
2021/10/18 17:08:12;;;;;;;49.40;29.30;;;;;;;9.03;70.70;99826.20;113835;1190;109855;-70
2021/10/18 17:10:40;;;;;;;48.20;28.80;;;;;;;9.02;70.67;99824.31;113806;1190;97666;-72
2021/10/18 17:13:08;;;;;;;54.10;32.20;;;;;;;9.02;70.71;99825.38;114312;1192;107494;-70
2021/10/18 17:15:36;;;;;;;50.90;30.60;;;;;;;9.03;70.60;99820.95;113740;1192;96477;-68
2021/10/18 17:18:04;;;;;;;52.30;31.90;;;;;;;9.03;70.49;99822.65;113821;1190;97711;-70
2021/10/18 17:20:35;;;;;;;53.90;32.10;;;;;;;9.04;70.53;99820.15;113669;1192;114470;-70
2021/10/18 17:23:06;;;;;;;56.20;34.00;;;;;;;9.04;70.66;99821.38;114166;1190;97528;-70
2021/10/18 17:25:35;;;;;;;55.80;33.70;;;;;;;9.04;70.76;99823.67;113862;1192;107503;-69
2021/10/18 17:28:06;;;;;;;57.20;33.30;;;;;;;9.06;70.69;99826.62;113837;1193;97626;-71
2021/10/18 17:30:38;;;;;;;55.30;33.40;;;;;;;9.04;70.83;99827.06;113834;1192;95017;-71
2021/10/18 17:33:05;;;;;;;53.90;32.40;;;;;;;9.02;71.22;99832.31;113836;1192;111134;-70
2021/10/18 17:35:33;;;;;;;57.10;33.60;;;;;;;9.01;71.06;99835.73;113804;1184;97609;-71
2021/10/18 17:38:01;;;;;;;57.80;33.20;;;;;;;8.99;70.89;99837.91;113906;1177;107675;-72
2021/10/18 17:40:29;;;;;;;56.40;33.20;;;;;;;9.01;70.82;99835.90;113837;1193;96169;-71
2021/10/18 17:42:57;;;;;;;54.10;32.90;;;;;;;9.02;70.92;99836.35;113896;1192;96048;-72
2021/10/18 17:45:25;;;;;;;56.30;34.50;;;;;;;9.03;70.85;99840.05;113820;1192;111606;-70
2021/10/18 17:48:00;;;;;;;55.60;32.40;;;;;;;9.04;70.99;99838.38;113573;1193;97595;-71
2021/10/18 17:50:28;;;;;;;56.90;33.30;;;;;;;9.05;71.41;99838.67;113876;1190;107501;-69
2021/10/18 17:52:58;;;;;;;58.50;32.10;;;;;;;9.05;71.32;99837.64;113807;1192;95042;-70
2021/10/18 17:55:26;;;;;;;55.70;31.40;;;;;;;9.05;71.17;99836.05;113811;1192;97556;-66
2021/10/18 17:57:56;;;;;;;55.30;31.70;;;;;;;9.04;71.42;99831.63;113881;1193;111750;-69
2021/10/18 18:00:24;;;;;;;55.60;33.60;;;;;;;9.05;71.26;99834.10;113933;1192;97553;-68
2021/10/18 18:02:52;;;;;;;53.60;30.60;;;;;;;9.07;71.22;99836.96;113791;1192;107548;-70
2021/10/18 18:05:23;;;;;;;61.80;32.50;;;;;;;9.07;71.20;99830.77;113559;1192;97530;-70
2021/10/18 18:07:51;;;;;;;60.30;33.90;;;;;;;9.09;71.25;99836.02;113830;1192;96029;-70
2021/10/18 18:10:23;;;;;;;60.20;35.10;;;;;;;9.10;71.10;99828.70;113850;1193;111184;-71
2021/10/18 18:12:51;;;;;;;60.30;34.00;;;;;;;9.12;71.24;99831.79;113628;1193;97606;-71
2021/10/18 18:15:19;;;;;;;58.30;33.60;;;;;;;9.13;71.23;99831.04;113852;1192;107529;-71
2021/10/18 18:17:47;;;;;;;59.50;35.30;;;;;;;9.14;71.17;99833.95;113798;1191;97521;-71
2021/10/18 18:20:20;;;;;;;56.80;34.20;;;;;;;9.15;71.30;99834.42;113718;1193;97760;-69
2021/10/18 18:22:48;;;;;;;61.20;34.00;;;;;;;9.16;71.32;99836.17;113839;1192;111189;-70
2021/10/18 18:25:19;;;;;;;58.50;34.70;;;;;;;9.15;71.19;99834.63;113888;1193;97640;-71
2021/10/18 18:27:52;;;;;;;59.90;33.80;;;;;;;9.15;71.28;99832.47;113703;1193;107365;-71
2021/10/18 18:30:22;;;;;;;57.70;34.60;;;;;;;9.15;71.25;99831.95;113815;1193;97534;-71
2021/10/18 18:32:54;;;;;;;62.40;36.80;;;;;;;9.14;71.25;99833.96;113758;1192;97670;-71
2021/10/18 18:35:23;;;;;;;58.70;34.90;;;;;;;9.12;71.17;99829.48;113362;1192;111329;-70
2021/10/18 18:37:54;;;;;;;63.30;36.50;;;;;;;9.10;71.24;99830.82;113328;1193;97660;-70
2021/10/18 18:40:25;;;;;;;63.30;35.90;;;;;;;9.10;71.19;99828.35;113719;1193;107526;-71
2021/10/18 18:42:56;;;;;;;60.40;34.60;;;;;;;9.10;71.18;99826.77;113799;1192;97676;-73
2021/10/18 18:45:25;;;;;;;76.70;45.20;;;;;;;9.08;71.18;99835.54;113781;1191;97628;-73
2021/10/18 18:47:56;;;;;;;62.90;36.40;;;;;;;9.07;71.22;99847.73;113776;1192;111234;-72
2021/10/18 18:50:25;;;;;;;61.30;35.50;;;;;;;9.09;71.32;99854.76;113730;1192;96106;-73
2021/10/18 18:52:54;;;;;;;65.00;35.80;;;;;;;9.10;71.35;99860.73;113384;1193;106485;-72
2021/10/18 18:55:25;;;;;;;59.60;35.10;;;;;;;9.11;71.25;99859.61;113758;1192;97647;-70
2021/10/18 18:57:53;;;;;;;58.20;34.30;;;;;;;9.10;71.36;99860.02;113478;1192;97531;-71
2021/10/18 19:00:26;;;;;;;63.30;36.50;;;;;;;9.12;71.42;99859.40;113774;1192;111201;-72
2021/10/18 19:02:56;;;;;;;64.20;38.50;;;;;;;9.13;71.47;99859.14;113752;1192;98246;-72
2021/10/18 19:05:24;;;;;;;62.00;36.30;;;;;;;9.15;71.40;99859.95;113795;1193;108264;-72
2021/10/18 19:07:52;;;;;;;62.30;36.20;;;;;;;9.16;71.31;99860.59;113731;1192;97686;-73
2021/10/18 19:10:20;;;;;;;63.90;35.30;;;;;;;9.16;71.29;99867.83;113804;1192;97666;-71
2021/10/18 19:12:49;;;;;;;66.80;37.20;;;;;;;9.16;71.44;99871.73;113749;1192;111170;-71
2021/10/18 19:15:17;;;;;;;69.50;38.80;;;;;;;9.16;71.29;99873.12;114011;1192;97522;-71
2021/10/18 19:17:46;;;;;;;69.50;37.90;;;;;;;9.17;71.48;99877.52;113907;1192;105743;-71
2021/10/18 19:20:14;;;;;;;65.50;37.90;;;;;;;9.18;71.42;99876.39;113836;1192;95115;-72
2021/10/18 19:22:45;;;;;;;65.40;36.10;;;;;;;9.18;71.49;99878.71;113374;1193;97612;-72
2021/10/18 19:25:18;;;;;;;71.60;39.00;;;;;;;9.19;71.51;99878.81;113727;1192;111154;-71
2021/10/18 19:27:46;;;;;;;68.40;38.50;;;;;;;9.20;71.46;99880.35;113799;1192;95557;-71
2021/10/18 19:30:15;;;;;;;70.00;39.30;;;;;;;9.18;71.44;99878.82;114060;1192;107515;-71
2021/10/18 19:32:48;;;;;;;68.00;39.90;;;;;;;9.18;71.38;99880.11;113796;1193;97648;-73
2021/10/18 19:35:17;;;;;;;71.90;40.20;;;;;;;9.18;71.48;99884.19;113640;1192;95106;-73
2021/10/18 19:37:47;;;;;;;70.70;39.50;;;;;;;9.16;71.48;99881.45;113785;1192;111672;-74
2021/10/18 19:40:16;;;;;;;76.00;42.50;;;;;;;9.17;71.55;99887.23;113897;1192;97650;-74
2021/10/18 19:42:45;;;;;;;77.50;42.60;;;;;;;9.19;71.62;99889.21;113719;1192;107504;-73
2021/10/18 19:45:16;;;;;;;74.60;40.20;;;;;;;9.21;71.57;99897.27;113744;1192;94997;-71
2021/10/18 19:47:44;;;;;;;77.10;42.70;;;;;;;9.22;71.70;99898.30;113671;1192;97661;-73
2021/10/18 19:50:14;;;;;;;78.30;43.50;;;;;;;9.21;71.61;99897.44;113388;1193;112085;-74
2021/10/18 19:52:44;;;;;;;77.80;43.70;;;;;;;9.20;71.62;99896.24;113662;1192;96836;-73
2021/10/18 19:55:13;;;;;;;75.80;40.40;;;;;;;9.22;71.68;99899.01;113669;1192;107530;-73
2021/10/18 19:57:47;;;;;;;77.60;41.10;;;;;;;9.21;71.65;99899.75;114025;1193;97713;-74
2021/10/18 20:00:16;;;;;;;73.60;40.30;;;;;;;9.20;71.68;99904.59;113713;1193;97641;-75
2021/10/18 20:02:44;;;;;;;74.90;41.30;;;;;;;9.20;71.72;99904.21;114447;1192;111754;-73
2021/10/18 20:05:12;;;;;;;77.90;43.20;;;;;;;9.23;71.77;99910.61;113647;1192;97532;-72
2021/10/18 20:07:41;;;;;;;79.70;43.80;;;;;;;9.24;71.75;99911.25;113407;1193;108121;-72
2021/10/18 20:10:12;;;;;;;81.40;42.50;;;;;;;9.26;71.72;99911.52;114248;1192;96038;-73
2021/10/18 20:12:40;;;;;;;78.50;42.70;;;;;;;9.28;71.72;99915.14;113860;1192;95716;-73
2021/10/18 20:15:12;;;;;;;78.00;42.60;;;;;;;9.30;71.78;99911.34;113813;1192;112281;-73
2021/10/18 20:17:40;;;;;;;79.60;39.50;;;;;;;9.30;71.76;99914.85;113781;1192;97762;-72
2021/10/18 20:20:13;;;;;;;85.70;45.10;;;;;;;9.31;71.79;99921.90;113645;1192;107591;-73
2021/10/18 20:22:44;;;;;;;84.90;44.50;;;;;;;9.31;71.59;99916.77;113537;1192;97548;-73
2021/10/18 20:25:13;;;;;;;82.10;45.30;;;;;;;9.31;71.68;99916.23;113636;1191;97557;-73
2021/10/18 20:27:46;;;;;;;76.40;44.50;;;;;;;9.31;71.75;99919.42;113684;1192;111175;-73
2021/10/18 20:30:14;;;;;;;91.90;46.70;;;;;;;9.32;71.70;99922.01;113675;1192;97551;-73
2021/10/18 20:32:46;;;;;;;81.00;44.50;;;;;;;9.33;71.74;99918.23;113807;1193;106935;-72
2021/10/18 20:35:16;;;;;;;83.70;42.90;;;;;;;9.33;71.79;99913.09;113803;1193;97651;-74
2021/10/18 20:37:46;;;;;;;78.40;41.70;;;;;;;9.34;71.65;99910.40;113840;1192;95388;-74
2021/10/18 20:40:36;;;;;;;81.00;41.40;;;;;;;9.33;71.86;99910.44;113810;1193;111375;-76
2021/10/18 20:43:04;;;;;;;79.50;42.00;;;;;;;9.34;71.71;99911.13;113758;1192;95789;-75
2021/10/18 20:45:34;;;;;;;79.90;42.10;;;;;;;9.32;71.80;99911.38;113633;1192;108248;-73
2021/10/18 20:48:06;;;;;;;76.90;42.50;;;;;;;9.33;71.82;99914.54;113805;1193;97666;-73
2021/10/18 20:50:36;;;;;;;75.20;39.00;;;;;;;9.33;71.76;99911.18;113820;1192;97556;-73
2021/10/18 20:53:07;;;;;;;73.70;39.30;;;;;;;9.34;71.86;99914.66;113713;1192;111145;-74
2021/10/18 20:55:35;;;;;;;78.40;41.30;;;;;;;9.34;71.86;99912.70;113701;1192;97559;-75
2021/10/18 20:58:03;;;;;;;76.90;39.60;;;;;;;9.34;71.82;99915.55;113572;1192;107352;-75
2021/10/18 21:00:37;;;;;;;70.70;38.00;;;;;;;9.34;71.92;99913.05;113698;1192;97644;-74
2021/10/18 21:03:07;;;;;;;76.00;43.00;;;;;;;9.34;71.85;99914.30;113722;1193;97673;-74
2021/10/18 21:05:35;;;;;;;75.30;42.50;;;;;;;9.34;71.92;99914.98;113450;1191;111325;-73
2021/10/18 21:08:03;;;;;;;71.90;38.90;;;;;;;9.36;71.95;99916.65;113327;1192;97525;-72
2021/10/18 21:10:31;;;;;;;68.30;39.70;;;;;;;9.38;71.91;99915.83;113337;1192;108719;-73
2021/10/18 21:12:59;;;;;;;65.80;36.80;;;;;;;9.39;71.97;99919.67;113673;1193;97630;-73
2021/10/18 21:15:28;;;;;;;66.20;36.60;;;;;;;9.40;71.98;99922.29;113626;1192;95714;-70
2021/10/18 21:17:56;;;;;;;70.10;39.50;;;;;;;9.41;72.00;99925.05;113545;1192;110936;-71
2021/10/18 21:20:29;;;;;;;72.40;37.60;;;;;;;9.42;71.99;99922.88;113564;1192;98144;-71
2021/10/18 21:22:57;;;;;;;70.00;37.40;;;;;;;9.43;72.08;99925.66;113490;1193;107326;-71
2021/10/18 21:25:25;;;;;;;66.20;36.90;;;;;;;9.44;72.10;99923.83;113047;1193;96090;-71
2021/10/18 21:27:54;;;;;;;69.40;37.90;;;;;;;9.45;72.14;99921.48;113545;1192;97679;-72
2021/10/18 21:30:24;;;;;;;68.70;38.50;;;;;;;9.47;72.16;99924.55;113528;1191;111456;-71
2021/10/18 21:32:52;;;;;;;67.00;35.90;;;;;;;9.49;72.00;99919.86;115080;1192;96270;-72
2021/10/18 21:35:21;;;;;;;65.30;35.50;;;;;;;9.48;72.05;99921.30;115384;1191;107171;-72
2021/10/18 21:37:49;;;;;;;64.40;36.10;;;;;;;9.49;72.07;99923.90;115117;1192;95815;-71
2021/10/18 21:40:19;;;;;;;72.00;37.60;;;;;;;9.52;72.07;99920.20;115431;1192;95671;-72
2021/10/18 21:42:47;;;;;;;64.00;36.80;;;;;;;9.55;71.98;99921.33;115407;1191;111163;-72
2021/10/18 21:45:19;;;;;;;65.40;36.40;;;;;;;9.56;71.97;99913.11;115442;1191;95499;-72
2021/10/18 21:47:51;;;;;;;66.30;39.50;;;;;;;9.58;72.00;99917.64;114274;1192;107559;-70
2021/10/18 21:50:19;;;;;;;62.00;36.40;;;;;;;9.59;72.06;99917.38;113837;1191;97522;-72
2021/10/18 21:52:47;;;;;;;61.30;35.60;;;;;;;9.60;72.09;99915.91;113788;1191;97641;-71
2021/10/18 21:55:16;;;;;;;62.90;37.40;;;;;;;9.60;72.11;99914.63;113761;1191;112169;-73
2021/10/18 21:57:44;;;;;;;62.70;37.50;;;;;;;9.60;71.98;99912.34;113802;1193;95052;-70
2021/10/18 22:00:22;;;;;;;67.50;38.00;;;;;;;9.59;72.13;99918.58;113432;1193;107363;-71
2021/10/18 22:02:50;;;;;;;63.00;35.80;;;;;;;9.60;72.19;99917.13;113544;1192;97545;-72
2021/10/18 22:05:18;;;;;;;66.70;38.70;;;;;;;9.60;72.24;99915.90;113337;1193;95147;-72
2021/10/18 22:07:46;;;;;;;66.10;37.20;;;;;;;9.60;72.22;99910.59;113493;1193;110619;-73
2021/10/18 22:10:14;;;;;;;65.10;37.80;;;;;;;9.58;72.27;99918.48;113656;1192;97647;-72
2021/10/18 22:12:42;;;;;;;67.30;36.50;;;;;;;9.55;72.26;99919.36;113596;1192;108006;-72
2021/10/18 22:15:09;;;;;;;70.30;37.60;;;;;;;9.50;72.17;99917.84;113556;1193;97640;-73
2021/10/18 22:17:37;;;;;;;65.50;39.20;;;;;;;9.49;72.42;99917.20;113673;1192;94983;-71
2021/10/18 22:20:07;;;;;;;65.40;36.90;;;;;;;9.49;72.38;99917.75;113701;1191;110993;-71
2021/10/18 22:22:35;;;;;;;55.90;33.50;;;;;;;9.49;72.49;99913.66;113693;1191;97516;-71
2021/10/18 22:25:06;;;;;;;55.50;32.60;;;;;;;9.47;72.35;99909.34;114563;1192;108077;-71
2021/10/18 22:27:40;;;;;;;59.60;33.60;;;;;;;9.44;72.51;99913.73;113960;1192;97649;-72
2021/10/18 22:30:13;;;;;;;52.50;31.30;;;;;;;9.41;72.33;99914.44;113572;1193;95030;-72
2021/10/18 22:32:44;;;;;;;54.10;31.30;;;;;;;9.41;72.35;99913.75;113687;1193;110283;-73
2021/10/18 22:35:12;;;;;;;55.00;32.30;;;;;;;9.38;72.38;99912.30;113546;1193;97550;-72
2021/10/18 22:37:40;;;;;;;56.80;32.60;;;;;;;9.37;72.45;99914.81;113672;1192;107515;-73
2021/10/18 22:40:11;;;;;;;54.10;31.80;;;;;;;9.35;72.65;99915.48;113897;1193;97663;-73
2021/10/18 22:42:39;;;;;;;57.30;32.30;;;;;;;9.32;72.66;99916.00;113864;1191;97555;-74
2021/10/18 22:45:12;;;;;;;55.90;33.10;;;;;;;9.28;72.42;99913.19;113900;1192;112262;-74
2021/10/18 22:47:39;;;;;;;56.90;33.10;;;;;;;9.28;72.49;99913.18;113886;1191;95360;-73
2021/10/18 22:50:11;;;;;;;53.40;30.80;;;;;;;9.29;72.60;99914.05;113878;1193;108805;-74
2021/10/18 22:52:39;;;;;;;56.50;32.50;;;;;;;9.27;72.42;99909.21;113826;1192;97658;-74
2021/10/18 22:55:07;;;;;;;53.30;30.40;;;;;;;9.27;72.56;99911.34;113371;1193;95117;-71
2021/10/18 22:57:35;;;;;;;53.80;31.60;;;;;;;9.25;72.74;99911.39;113716;1192;110725;-74
2021/10/18 23:00:07;;;;;;;53.90;31.90;;;;;;;9.22;72.53;99909.77;113588;1193;97506;-74
2021/10/18 23:02:35;;;;;;;55.90;32.10;;;;;;;9.22;72.56;99909.82;113643;1193;107465;-74
2021/10/18 23:05:11;;;;;;;51.40;29.50;;;;;;;9.21;72.69;99908.77;113635;1193;97709;-72
2021/10/18 23:07:39;;;;;;;49.30;29.30;;;;;;;9.21;72.56;99909.51;113721;1192;97520;-74
2021/10/18 23:10:07;;;;;;;54.80;30.20;;;;;;;9.20;72.53;99907.77;113732;1192;111208;-74
2021/10/18 23:12:35;;;;;;;52.80;28.70;;;;;;;9.20;72.55;99902.12;113394;1193;96451;-73
2021/10/18 23:15:04;;;;;;;52.00;29.00;;;;;;;9.19;72.56;99900.58;113713;1196;107541;-74
2021/10/18 23:17:31;;;;;;;50.50;28.70;;;;;;;9.18;72.67;99898.86;113744;1193;97663;-75
2021/10/18 23:20:07;;;;;;;48.40;27.50;;;;;;;9.18;72.57;99891.81;113724;1193;96874;-73
2021/10/18 23:22:35;;;;;;;46.80;26.50;;;;;;;9.17;72.59;99891.46;113497;1193;111251;-72
2021/10/18 23:25:06;;;;;;;48.90;26.90;;;;;;;9.17;72.71;99888.67;113843;1192;97572;-74
2021/10/18 23:27:38;;;;;;;48.50;27.00;;;;;;;9.17;72.64;99889.90;113924;1193;107518;-72
2021/10/18 23:30:09;;;;;;;49.70;28.20;;;;;;;9.19;72.64;99894.73;113915;1192;97999;-72
2021/10/18 23:32:37;;;;;;;54.90;29.00;;;;;;;9.21;72.74;99896.21;113928;1192;96443;-72
2021/10/18 23:35:11;;;;;;;49.60;28.60;;;;;;;9.22;72.61;99900.04;113886;1192;111151;-75
2021/10/18 23:37:43;;;;;;;49.20;28.80;;;;;;;9.23;72.65;99900.53;113889;1193;97672;-74
2021/10/18 23:40:15;;;;;;;48.10;27.10;;;;;;;9.23;72.63;99902.63;113860;1193;107628;-74
2021/10/18 23:42:44;;;;;;;49.80;27.30;;;;;;;9.26;72.59;99906.96;113905;1192;97681;-72
2021/10/18 23:45:15;;;;;;;46.00;29.40;;;;;;;9.25;72.67;99913.52;113907;1193;97647;-72
2021/10/18 23:47:43;;;;;;;49.70;27.60;;;;;;;9.27;72.73;99914.52;113948;1191;111172;-71
2021/10/18 23:50:12;;;;;;;49.90;28.80;;;;;;;9.27;72.68;99915.36;113906;1193;97625;-74
2021/10/18 23:52:41;;;;;;;51.60;28.80;;;;;;;9.28;72.75;99917.45;113956;1192;105627;-72
2021/10/18 23:55:12;;;;;;;51.50;30.70;;;;;;;9.29;72.75;99921.82;113872;1193;95012;-74
2021/10/18 23:57:40;;;;;;;49.40;27.80;;;;;;;9.29;72.72;99916.88;113952;1193;97666;-73
